createdAt,value
2018-09-08T00:00:02.239Z,13.87
2018-09-08T00:02:30.432Z,13.84
2018-09-08T00:04:58.608Z,13.74
2018-09-08T00:07:32.117Z,13.73
2018-09-08T00:10:00.480Z,13.64
2018-09-08T00:12:28.907Z,13.59
2018-09-08T00:14:56.272Z,13.49
2018-09-08T00:17:29.742Z,13.45
2018-09-08T00:20:03.912Z,13.37
2018-09-08T00:22:37.360Z,13.36
2018-09-08T00:25:10.921Z,13.22
2018-09-08T00:27:45.327Z,13.18
2018-09-08T00:30:14.482Z,13.13
2018-09-08T00:32:42.686Z,13.18
2018-09-08T00:35:11.854Z,13.12
2018-09-08T00:37:40.470Z,13.05
2018-09-08T00:40:08.702Z,13.11
2018-09-08T00:42:37.222Z,13.05
2018-09-08T00:45:06.011Z,12.99
2018-09-08T00:47:34.467Z,12.95
2018-09-08T00:50:02.661Z,12.92
2018-09-08T00:52:31.109Z,12.88
2018-09-08T00:54:59.295Z,12.85
2018-09-08T00:57:27.553Z,12.85
2018-09-08T00:59:55.741Z,12.85
2018-09-08T01:02:23.913Z,12.86
2018-09-08T01:04:52.401Z,12.79
2018-09-08T01:07:26.048Z,12.76
2018-09-08T01:09:56.796Z,12.70
2018-09-08T01:12:24.978Z,12.65
2018-09-08T01:14:53.254Z,12.62
2018-09-08T01:17:21.476Z,12.63
2018-09-08T01:19:49.654Z,12.56
2018-09-08T01:22:18.090Z,12.55
2018-09-08T01:24:46.408Z,12.55
2018-09-08T01:27:14.596Z,12.53
2018-09-08T01:29:43.107Z,12.58
2018-09-08T01:32:11.600Z,12.61
2018-09-08T01:34:39.828Z,12.74
2018-09-08T01:37:08.113Z,12.59
2018-09-08T01:39:36.574Z,12.46
2018-09-08T01:42:04.743Z,12.37
2018-09-08T01:44:32.938Z,12.32
2018-09-08T01:47:01.189Z,12.26
2018-09-08T01:49:29.449Z,12.22
2018-09-08T01:51:57.661Z,12.20
2018-09-08T01:54:25.845Z,12.16
2018-09-08T01:56:54.045Z,12.13
2018-09-08T01:59:22.445Z,12.11
2018-09-08T02:01:50.766Z,12.07
2018-09-08T02:04:19.029Z,12.10
2018-09-08T02:06:47.361Z,12.08
2018-09-08T02:09:15.585Z,12.04
2018-09-08T02:11:43.849Z,12.09
2018-09-08T02:14:12.029Z,12.10
2018-09-08T02:16:40.525Z,12.13
2018-09-08T02:19:08.720Z,12.12
2018-09-08T02:21:36.966Z,12.06
2018-09-08T02:24:05.154Z,12.01
2018-09-08T02:26:33.408Z,11.96
2018-09-08T02:29:01.599Z,11.89
2018-09-08T02:31:29.793Z,11.84
2018-09-08T02:33:58.468Z,11.85
2018-09-08T02:36:26.647Z,11.87
2018-09-08T02:38:54.829Z,11.89
2018-09-08T02:41:23.020Z,11.89
2018-09-08T02:43:51.391Z,11.93
2018-09-08T02:46:19.626Z,11.93
2018-09-08T02:48:47.929Z,11.84
2018-09-08T02:51:15.072Z,11.85
2018-09-08T02:53:42.171Z,11.79
2018-09-08T02:56:09.274Z,11.74
2018-09-08T02:58:36.398Z,11.76
2018-09-08T03:01:03.511Z,11.88
2018-09-08T03:03:30.618Z,12.04
2018-09-08T03:05:57.754Z,12.05
2018-09-08T03:08:24.865Z,12.04
2018-09-08T03:10:51.981Z,12.10
2018-09-08T03:13:19.105Z,12.20
2018-09-08T03:15:46.221Z,12.28
2018-09-08T03:18:13.325Z,12.37
2018-09-08T03:20:40.457Z,12.37
2018-09-08T03:23:07.581Z,12.19
2018-09-08T03:25:34.699Z,12.03
2018-09-08T03:28:01.830Z,11.97
2018-09-08T03:30:28.945Z,12.01
2018-09-08T03:32:56.048Z,12.11
2018-09-08T03:35:24.130Z,11.93
2018-09-08T03:37:51.228Z,11.86
2018-09-08T03:40:18.340Z,11.78
2018-09-08T03:42:45.460Z,11.73
2018-09-08T03:45:12.825Z,11.76
2018-09-08T03:47:39.942Z,11.79
2018-09-08T03:50:07.897Z,11.75
2018-09-08T03:52:35.014Z,11.60
2018-09-08T03:55:02.118Z,11.56
2018-09-08T03:57:29.267Z,11.61
2018-09-08T03:59:56.365Z,11.65
2018-09-08T04:02:23.473Z,11.56
2018-09-08T04:04:51.675Z,11.52
2018-09-08T04:07:19.878Z,11.48
2018-09-08T04:09:48.068Z,11.51
2018-09-08T04:12:16.341Z,11.52
2018-09-08T04:14:44.924Z,11.54
2018-09-08T04:17:13.101Z,11.70
2018-09-08T04:19:41.293Z,11.66
2018-09-08T04:22:09.475Z,11.72
2018-09-08T04:24:37.657Z,11.84
2018-09-08T04:27:05.992Z,11.86
2018-09-08T04:29:34.204Z,11.86
2018-09-08T04:32:02.427Z,11.75
2018-09-08T04:34:30.640Z,11.78
2018-09-08T04:36:58.884Z,11.71
2018-09-08T04:39:27.256Z,11.74
2018-09-08T04:41:55.453Z,11.94
2018-09-08T04:44:23.724Z,12.10
2018-09-08T04:46:51.906Z,12.08
2018-09-08T04:49:20.207Z,12.05
2018-09-08T04:51:48.446Z,11.69
2018-09-08T04:54:16.638Z,11.92
2018-09-08T04:56:44.903Z,11.94
2018-09-08T04:59:13.094Z,11.96
2018-09-08T05:01:41.298Z,11.77
2018-09-08T05:04:09.498Z,11.73
2018-09-08T05:06:37.681Z,11.83
2018-09-08T05:09:08.829Z,11.92
2018-09-08T05:11:37.006Z,12.21
2018-09-08T05:14:05.367Z,12.52
2018-09-08T05:16:33.812Z,12.92
2018-09-08T05:19:02.040Z,13.24
2018-09-08T05:21:30.323Z,13.49
2018-09-08T05:23:58.742Z,13.62
2018-09-08T05:26:26.897Z,13.66
2018-09-08T05:28:55.173Z,13.30
2018-09-08T05:31:23.430Z,13.21
2018-09-08T05:33:51.609Z,13.16
2018-09-08T05:36:19.945Z,13.26
2018-09-08T05:38:48.157Z,13.24
2018-09-08T05:41:16.344Z,13.33
2018-09-08T05:43:44.543Z,13.54
2018-09-08T05:46:12.727Z,13.80
2018-09-08T05:48:40.962Z,13.59
2018-09-08T05:51:09.322Z,13.78
2018-09-08T05:53:37.574Z,13.77
2018-09-08T05:56:06.465Z,14.01
2018-09-08T05:58:34.709Z,14.43
2018-09-08T06:01:02.842Z,14.49
2018-09-08T06:03:31.004Z,14.34
2018-09-08T06:05:59.185Z,14.80
2018-09-08T06:08:27.468Z,14.92
2018-09-08T06:10:55.730Z,14.97
2018-09-08T06:13:23.918Z,14.41
2018-09-08T06:15:52.204Z,14.57
2018-09-08T06:18:20.435Z,14.22
2018-09-08T06:20:48.548Z,14.08
2018-09-08T06:23:16.728Z,14.10
2018-09-08T06:25:44.895Z,14.26
2018-09-08T06:28:13.073Z,13.91
2018-09-08T06:30:41.357Z,14.18
2018-09-08T06:33:10.122Z,14.58
2018-09-08T06:35:38.718Z,14.68
2018-09-08T06:38:07.093Z,14.22
2018-09-08T06:40:35.521Z,14.77
2018-09-08T06:43:03.681Z,14.90
2018-09-08T06:45:31.981Z,14.89
2018-09-08T06:48:00.147Z,15.37
2018-09-08T06:50:28.371Z,15.71
2018-09-08T06:52:57.015Z,15.63
2018-09-08T06:55:25.221Z,15.30
2018-09-08T06:57:53.434Z,15.30
2018-09-08T07:00:21.723Z,15.99
2018-09-08T07:02:50.163Z,16.30
2018-09-08T07:05:18.904Z,16.73
2018-09-08T07:07:47.086Z,16.28
2018-09-08T07:10:15.298Z,16.08
2018-09-08T07:12:43.562Z,16.15
2018-09-08T07:15:12.111Z,16.38
2018-09-08T07:17:40.320Z,16.42
2018-09-08T07:20:08.658Z,16.46
2018-09-08T07:22:37.088Z,16.53
2018-09-08T07:25:06.388Z,16.48
2018-09-08T07:27:34.606Z,16.50
2018-09-08T07:30:02.844Z,16.31
2018-09-08T07:32:31.038Z,16.49
2018-09-08T07:34:59.281Z,16.38
2018-09-08T07:37:27.652Z,16.81
2018-09-08T07:39:55.833Z,16.37
2018-09-08T07:42:24.009Z,16.84
2018-09-08T07:44:52.413Z,17.19
2018-09-08T07:47:20.665Z,17.28
2018-09-08T07:49:48.848Z,17.63
2018-09-08T07:52:17.137Z,17.06
2018-09-08T07:54:45.321Z,17.46
2018-09-08T07:57:14.041Z,16.84
2018-09-08T07:59:42.274Z,17.30
2018-09-08T08:02:10.512Z,17.10
2018-09-08T08:04:38.705Z,17.19
2018-09-08T08:07:11.046Z,17.26
2018-09-08T08:09:39.216Z,17.47
2018-09-08T08:12:08.160Z,17.55
2018-09-08T08:14:37.066Z,17.84
2018-09-08T08:17:05.188Z,18.18
2018-09-08T08:19:34.366Z,18.34
2018-09-08T08:22:02.643Z,18.71
2018-09-08T08:24:30.856Z,19.20
2018-09-08T08:26:59.782Z,19.12
2018-09-08T08:29:27.969Z,18.80
2018-09-08T08:31:56.450Z,18.99
2018-09-08T08:34:24.885Z,19.14
2018-09-08T08:36:53.077Z,19.43
2018-09-08T08:39:21.381Z,19.46
2018-09-08T08:41:49.730Z,19.66
2018-09-08T08:44:17.913Z,20.37
2018-09-08T08:46:46.089Z,20.56
2018-09-08T08:49:14.297Z,20.04
2018-09-08T08:51:53.781Z,20.47
2018-09-08T08:54:27.288Z,19.93
2018-09-08T08:56:55.568Z,19.36
2018-09-08T08:59:23.884Z,19.56
2018-09-08T09:01:52.284Z,20.44
2018-09-08T09:04:20.498Z,20.25
2018-09-08T09:06:48.748Z,18.92
2018-09-08T09:09:16.937Z,19.18
2018-09-08T09:11:45.637Z,19.54
2018-09-08T09:14:14.247Z,19.53
2018-09-08T09:16:42.633Z,19.44
2018-09-08T09:19:33.546Z,19.24
2018-09-08T09:22:13.906Z,18.97
2018-09-08T09:24:53.336Z,18.64
2018-09-08T09:27:21.512Z,19.52
2018-09-08T09:29:49.730Z,19.64
2018-09-08T09:32:18.047Z,19.97
2018-09-08T09:34:46.228Z,19.77
2018-09-08T09:37:14.452Z,19.59
2018-09-08T09:39:42.656Z,20.61
2018-09-08T09:42:11.254Z,20.66
2018-09-08T09:44:39.535Z,20.29
2018-09-08T09:47:07.773Z,20.94
2018-09-08T09:49:36.051Z,21.60
2018-09-08T09:52:04.236Z,20.16
2018-09-08T09:54:32.413Z,20.60
2018-09-08T09:57:00.669Z,20.67
2018-09-08T09:59:28.833Z,22.04
2018-09-08T10:02:03.256Z,21.74
2018-09-08T10:04:31.517Z,21.98
2018-09-08T10:06:59.668Z,22.36
2018-09-08T10:09:28.599Z,21.08
2018-09-08T10:11:56.795Z,21.44
2018-09-08T10:14:25.228Z,22.16
2018-09-08T10:16:53.416Z,22.77
2018-09-08T10:19:21.690Z,22.87
2018-09-08T10:21:49.966Z,22.77
2018-09-08T10:24:18.156Z,22.28
2018-09-08T10:26:46.319Z,22.03
2018-09-08T10:29:14.494Z,20.25
2018-09-08T10:31:42.782Z,20.78
2018-09-08T10:34:11.062Z,20.28
2018-09-08T10:36:39.338Z,22.09
2018-09-08T10:39:08.226Z,22.87
2018-09-08T10:41:36.520Z,22.94
2018-09-08T10:44:04.761Z,23.52
2018-09-08T10:46:32.963Z,22.59
2018-09-08T10:49:01.135Z,22.15
2018-09-08T10:52:09.597Z,32.11
2018-09-08T10:54:38.039Z,29.74
2018-09-08T10:57:06.447Z,27.13
2018-09-08T10:59:34.615Z,23.97
2018-09-08T11:02:02.915Z,24.57
2018-09-08T11:04:31.281Z,28.89
2018-09-08T11:06:59.545Z,25.73
2018-09-08T11:09:28.033Z,31.18
2018-09-08T11:11:56.301Z,38.04
2018-09-08T11:14:24.533Z,28.78
2018-09-08T11:16:52.793Z,26.08
2018-09-08T11:19:21.240Z,25.14
2018-09-08T11:21:49.424Z,23.71
2018-09-08T11:24:17.619Z,23.33
2018-09-08T11:26:45.983Z,28.88
2018-09-08T11:29:14.205Z,25.42
2018-09-08T11:31:42.454Z,24.53
2018-09-08T11:34:10.740Z,24.08
2018-09-08T11:36:39.107Z,21.80
2018-09-08T11:39:07.955Z,23.48
2018-09-08T11:41:37.156Z,24.29
2018-09-08T11:44:05.632Z,32.49
2018-09-08T11:46:34.213Z,28.11
2018-09-08T11:49:02.385Z,26.75
2018-09-08T11:51:30.782Z,26.58
2018-09-08T11:53:59.242Z,27.79
2018-09-08T11:56:27.470Z,41.49
2018-09-08T11:58:55.680Z,44.44
2018-09-08T12:01:23.894Z,42.33
2018-09-08T12:03:52.080Z,44.34
2018-09-08T12:06:20.293Z,46.37
2018-09-08T12:08:48.541Z,47.22
2018-09-08T12:11:16.817Z,47.18
2018-09-08T12:13:45.119Z,46.94
2018-09-08T12:16:13.301Z,44.02
2018-09-08T12:18:41.533Z,47.82
2018-09-08T12:21:09.747Z,41.57
2018-09-08T12:23:39.353Z,44.59
2018-09-08T12:26:07.973Z,32.53
2018-09-08T12:28:36.203Z,31.34
2018-09-08T12:31:04.426Z,42.26
2018-09-08T12:33:32.629Z,43.55
2018-09-08T12:36:00.825Z,41.93
2018-09-08T12:38:29.025Z,45.19
2018-09-08T12:40:57.186Z,48.92
2018-09-08T12:43:25.676Z,47.22
2018-09-08T12:45:54.278Z,48.58
2018-09-08T12:48:22.545Z,46.89
2018-09-08T12:50:50.794Z,41.94
2018-09-08T12:53:19.379Z,36.29
2018-09-08T12:55:47.739Z,42.02
2018-09-08T12:58:16.022Z,44.20
2018-09-08T13:00:44.296Z,46.46
2018-09-08T13:03:12.463Z,39.75
2018-09-08T13:05:40.949Z,44.29
2018-09-08T13:08:09.433Z,41.98
2018-09-08T13:10:37.685Z,42.82
2018-09-08T13:13:05.995Z,48.06
2018-09-08T13:15:34.238Z,33.87
2018-09-08T13:18:02.433Z,35.96
2018-09-08T13:20:30.721Z,43.78
2018-09-08T13:22:59.035Z,46.31
2018-09-08T13:25:27.199Z,47.24
2018-09-08T13:27:55.571Z,40.01
2018-09-08T13:30:23.797Z,31.21
2018-09-08T13:32:52.072Z,31.92
2018-09-08T13:35:21.767Z,32.33
2018-09-08T13:37:49.924Z,37.42
2018-09-08T13:40:18.127Z,43.30
2018-09-08T13:42:46.354Z,33.58
2018-09-08T13:45:14.552Z,38.95
2018-09-08T13:47:42.725Z,38.55
2018-09-08T13:50:11.048Z,39.33
2018-09-08T13:52:39.898Z,34.50
2018-09-08T13:55:08.068Z,32.83
2018-09-08T13:57:36.286Z,32.07
2018-09-08T14:00:06.074Z,33.47
2018-09-08T14:02:34.360Z,35.88
2018-09-08T14:05:02.796Z,42.33
2018-09-08T14:07:30.994Z,41.95
2018-09-08T14:09:59.188Z,40.50
2018-09-08T14:12:27.853Z,41.03
2018-09-08T14:14:56.038Z,45.24
2018-09-08T14:17:25.026Z,43.08
2018-09-08T14:19:53.535Z,39.89
2018-09-08T14:22:21.805Z,44.07
2018-09-08T14:24:49.981Z,41.38
2018-09-08T14:27:18.181Z,44.06
2018-09-08T14:29:46.423Z,45.34
2018-09-08T14:32:14.613Z,44.23
2018-09-08T14:34:42.895Z,35.38
2018-09-08T14:37:11.098Z,40.86
2018-09-08T14:39:39.281Z,42.87
2018-09-08T14:42:07.503Z,43.76
2018-09-08T14:44:35.695Z,42.44
2018-09-08T14:47:03.868Z,41.31
2018-09-08T14:49:32.213Z,31.24
2018-09-08T14:52:00.398Z,32.97
2018-09-08T14:54:28.652Z,30.97
2018-09-08T14:56:56.875Z,31.40
2018-09-08T14:59:25.122Z,30.34
2018-09-08T15:01:53.384Z,29.39
2018-09-08T15:04:21.586Z,28.37
2018-09-08T15:06:49.800Z,28.29
2018-09-08T15:09:17.958Z,26.22
2018-09-08T15:11:46.508Z,26.54
2018-09-08T15:14:14.693Z,26.48
2018-09-08T15:16:43.137Z,25.46
2018-09-08T15:19:11.447Z,24.97
2018-09-08T15:21:39.625Z,26.30
2018-09-08T15:24:07.873Z,25.84
2018-09-08T15:26:36.251Z,25.42
2018-09-08T15:29:04.439Z,25.28
2018-09-08T15:31:32.617Z,25.38
2018-09-08T15:34:00.887Z,25.19
2018-09-08T15:36:29.160Z,25.18
2018-09-08T15:38:57.356Z,25.04
2018-09-08T15:41:25.536Z,24.57
2018-09-08T15:43:53.785Z,25.19
2018-09-08T15:46:22.044Z,25.24
2018-09-08T15:48:50.259Z,24.92
2018-09-08T15:51:18.445Z,25.01
2018-09-08T15:53:46.688Z,24.87
2018-09-08T15:56:15.133Z,24.28
2018-09-08T15:58:43.361Z,23.84
2018-09-08T16:01:11.711Z,23.79
2018-09-08T16:03:39.915Z,23.67
2018-09-08T16:06:08.218Z,23.71
2018-09-08T16:08:36.388Z,23.14
2018-09-08T16:11:04.644Z,23.69
2018-09-08T16:13:32.811Z,23.40
2018-09-08T16:16:00.986Z,23.78
2018-09-08T16:18:29.180Z,23.09
2018-09-08T16:20:57.349Z,23.02
2018-09-08T16:23:25.596Z,23.19
2018-09-08T16:25:53.890Z,23.10
2018-09-08T16:28:22.138Z,22.77
2018-09-08T16:30:50.626Z,22.54
2018-09-08T16:33:19.118Z,22.75
2018-09-08T16:35:47.294Z,22.59
2018-09-08T16:38:15.545Z,22.25
2018-09-08T16:40:43.731Z,22.23
2018-09-08T16:43:11.989Z,21.98
2018-09-08T16:45:40.159Z,21.91
2018-09-08T16:48:08.341Z,21.74
2018-09-08T16:50:36.513Z,21.63
2018-09-08T16:53:04.677Z,21.49
2018-09-08T16:55:33.145Z,21.42
2018-09-08T16:58:01.311Z,21.25
2018-09-08T17:00:29.556Z,21.14
2018-09-08T17:02:57.820Z,20.94
2018-09-08T17:05:26.060Z,20.84
2018-09-08T17:07:54.214Z,20.70
2018-09-08T17:10:22.908Z,20.76
2018-09-08T17:12:51.164Z,20.79
2018-09-08T17:15:19.382Z,20.67
2018-09-08T17:17:47.578Z,20.57
2018-09-08T17:20:15.766Z,20.45
2018-09-08T17:22:44.270Z,20.31
2018-09-08T17:25:12.425Z,20.02
2018-09-08T17:27:40.670Z,20.10
2018-09-08T17:30:08.904Z,20.03
2018-09-08T17:32:37.173Z,19.43
2018-09-08T17:35:07.665Z,19.51
2018-09-08T17:37:35.918Z,19.45
2018-09-08T17:40:04.137Z,19.40
2018-09-08T17:42:32.318Z,19.14
2018-09-08T17:45:00.541Z,18.93
2018-09-08T17:47:28.749Z,18.84
2018-09-08T17:49:57.005Z,18.76
2018-09-08T17:52:25.212Z,18.66
2018-09-08T17:54:53.543Z,18.54
2018-09-08T17:57:21.803Z,18.39
2018-09-08T17:59:49.981Z,18.27
2018-09-08T18:02:18.179Z,18.19
2018-09-08T18:04:46.365Z,17.95
2018-09-08T18:07:16.121Z,17.86
2018-09-08T18:09:44.300Z,17.83
2018-09-08T18:12:12.508Z,17.80
2018-09-08T18:14:40.852Z,17.72
2018-09-08T18:17:09.075Z,17.75
2018-09-08T18:19:37.596Z,17.72
2018-09-08T18:22:05.805Z,17.61
2018-09-08T18:24:33.999Z,17.46
2018-09-08T18:27:02.153Z,17.32
2018-09-08T18:29:30.319Z,17.26
2018-09-08T18:31:58.522Z,17.17
2018-09-08T18:34:26.711Z,17.15
2018-09-08T18:36:54.900Z,17.00
2018-09-08T18:39:23.186Z,17.02
2018-09-08T18:41:51.388Z,17.06
2018-09-08T18:44:19.670Z,17.04
2018-09-08T18:46:47.886Z,16.98
2018-09-08T18:49:16.147Z,16.92
2018-09-08T18:51:44.322Z,16.85
2018-09-08T18:54:12.517Z,16.70
2018-09-08T18:56:40.781Z,16.68
2018-09-08T18:59:08.989Z,16.60
2018-09-08T19:01:37.230Z,16.46
2018-09-08T19:04:05.625Z,16.37
2018-09-08T19:06:33.875Z,16.35
2018-09-08T19:09:02.163Z,16.38
2018-09-08T19:11:30.355Z,16.48
2018-09-08T19:13:58.601Z,16.32
2018-09-08T19:16:26.792Z,16.25
2018-09-08T19:18:55.065Z,16.18
2018-09-08T19:21:23.254Z,16.12
2018-09-08T19:23:56.834Z,16.15
2018-09-08T19:26:25.118Z,16.04
2018-09-08T19:28:58.700Z,16.09
2018-09-08T19:31:26.893Z,16.13
2018-09-08T19:33:55.378Z,15.81
2018-09-08T19:36:23.623Z,15.71
2018-09-08T19:38:51.814Z,15.66
2018-09-08T19:41:20.006Z,15.68
2018-09-08T19:43:48.289Z,15.67
2018-09-08T19:46:22.008Z,15.66
2018-09-08T19:48:50.215Z,15.59
2018-09-08T19:51:18.429Z,15.53
2018-09-08T19:53:52.068Z,15.41
2018-09-08T19:56:24.458Z,15.44
2018-09-08T19:58:56.056Z,15.42
2018-09-08T20:01:24.270Z,15.33
2018-09-08T20:03:52.671Z,15.30
2018-09-08T20:06:21.299Z,15.26
2018-09-08T20:08:49.492Z,15.34
2018-09-08T20:11:17.737Z,15.34
2018-09-08T20:13:46.136Z,15.45
2018-09-08T20:16:14.331Z,15.63
2018-09-08T20:18:42.597Z,15.47
2018-09-08T20:21:10.865Z,15.39
2018-09-08T20:23:39.137Z,15.26
2018-09-08T20:26:07.652Z,15.10
2018-09-08T20:28:36.124Z,15.04
2018-09-08T20:31:04.353Z,15.06
2018-09-08T20:33:32.988Z,15.02
2018-09-08T20:36:01.534Z,14.97
2018-09-08T20:38:29.903Z,14.90
2018-09-08T20:40:58.190Z,14.82
2018-09-08T20:43:26.370Z,14.77
2018-09-08T20:45:54.562Z,14.70
2018-09-08T20:48:23.165Z,14.61
2018-09-08T20:50:51.406Z,14.57
2018-09-08T20:53:19.935Z,14.58
2018-09-08T20:55:48.135Z,14.59
2018-09-08T20:58:16.430Z,14.59
2018-09-08T21:00:44.696Z,14.49
2018-09-08T21:03:12.890Z,14.25
2018-09-08T21:05:41.102Z,14.09
2018-09-08T21:08:09.317Z,14.34
2018-09-08T21:10:37.500Z,14.56
2018-09-08T21:13:05.959Z,14.49
2018-09-08T21:15:34.145Z,14.30
2018-09-08T21:18:02.317Z,14.25
2018-09-08T21:20:30.539Z,14.15
2018-09-08T21:22:58.764Z,14.11
2018-09-08T21:25:27.849Z,14.07
2018-09-08T21:27:57.321Z,14.01
2018-09-08T21:30:26.318Z,13.99
2018-09-08T21:32:57.212Z,13.97
2018-09-08T21:35:26.865Z,13.95
2018-09-08T21:37:55.972Z,13.91
2018-09-08T21:40:25.119Z,13.90
2018-09-08T21:42:54.186Z,13.92
2018-09-08T21:45:24.089Z,13.81
2018-09-08T21:47:53.276Z,13.82
2018-09-08T21:50:22.380Z,13.82
2018-09-08T21:52:51.685Z,13.82
2018-09-08T21:55:20.865Z,13.76
2018-09-08T21:57:49.950Z,13.69
2018-09-08T22:00:19.824Z,13.59
2018-09-08T22:02:48.956Z,13.58
2018-09-08T22:05:17.889Z,13.51
2018-09-08T22:07:47.080Z,13.56
2018-09-08T22:10:16.189Z,13.66
2018-09-08T22:12:45.024Z,13.52
2018-09-08T22:15:14.056Z,13.41
2018-09-08T22:17:43.127Z,13.28
2018-09-08T22:20:12.485Z,13.23
2018-09-08T22:22:41.737Z,13.20
2018-09-08T22:25:10.611Z,13.15
2018-09-08T22:27:39.834Z,13.13
2018-09-08T22:30:09.857Z,13.11
2018-09-08T22:32:39.016Z,13.06
2018-09-08T22:35:08.067Z,12.99
2018-09-08T22:37:37.253Z,12.92
2018-09-08T22:40:06.346Z,12.87
2018-09-08T22:42:35.030Z,12.80
2018-09-08T22:45:04.199Z,12.77
2018-09-08T22:47:33.390Z,12.74
2018-09-08T22:50:02.626Z,12.71
2018-09-08T22:52:32.322Z,12.68
2018-09-08T22:55:01.336Z,12.65
2018-09-08T22:57:30.667Z,12.64
2018-09-08T22:59:59.504Z,12.67
2018-09-08T23:02:30.086Z,12.67
2018-09-08T23:04:59.205Z,12.61
2018-09-08T23:07:28.321Z,12.54
2018-09-08T23:09:56.545Z,12.57
2018-09-08T23:12:25.401Z,12.55
2018-09-08T23:14:53.728Z,12.47
2018-09-08T23:17:22.960Z,12.43
2018-09-08T23:19:51.391Z,12.47
2018-09-08T23:22:19.661Z,12.45
2018-09-08T23:24:48.231Z,12.40
2018-09-08T23:27:16.601Z,12.40
2018-09-08T23:29:45.096Z,12.40
2018-09-08T23:32:13.333Z,12.42
2018-09-08T23:34:43.033Z,12.44
2018-09-08T23:37:11.234Z,12.44
2018-09-08T23:39:39.666Z,12.39
2018-09-08T23:42:07.844Z,12.33
2018-09-08T23:44:36.060Z,12.36
2018-09-08T23:47:04.357Z,12.37
2018-09-08T23:49:32.584Z,12.29
2018-09-08T23:52:00.787Z,12.26
2018-09-08T23:54:29.041Z,12.26
2018-09-08T23:56:57.217Z,12.28
2018-09-08T23:59:25.409Z,12.24
